createdAt,value
2023-05-17T07:59:50.758Z,956.1655273
2023-05-17T08:00:51.741Z,956.1981201
2023-05-17T08:01:53.002Z,956.1187744
2023-05-17T08:02:54.051Z,956.138855
2023-05-17T08:03:55.025Z,956.1394043
2023-05-17T08:04:56.338Z,956.1049805
2023-05-17T08:05:56.721Z,956.0964355
2023-05-17T08:06:58.013Z,956.1002197
2023-05-17T08:07:58.450Z,956.1333008
2023-05-17T08:08:59.521Z,956.1501465
2023-05-17T08:10:00.050Z,956.0964355
2023-05-17T08:11:01.293Z,956.0893555
2023-05-17T08:12:02.797Z,956.0334473
2023-05-17T08:13:04.004Z,956.045166
2023-05-17T08:14:05.007Z,956.0853882
2023-05-17T08:15:06.521Z,956.0497437
2023-05-17T08:16:13.670Z,956.0828247
2023-05-17T08:17:07.998Z,956.1046753
2023-05-17T08:18:09.365Z,956.0551758
2023-05-17T08:19:11.042Z,956.0806274
2023-05-17T08:20:41.745Z,956.0684204
2023-05-17T08:21:42.779Z,956.0549316
2023-05-17T08:22:44.059Z,956.048584
2023-05-17T08:23:44.992Z,956.0853882
2023-05-17T08:24:45.414Z,956.0692139
2023-05-17T08:25:46.744Z,956.0357666
2023-05-17T08:26:48.166Z,956.0786133
2023-05-17T08:27:48.656Z,956.0647583
2023-05-17T08:28:49.127Z,956.1350098
2023-05-17T08:29:49.600Z,956.1551514
2023-05-17T08:30:50.742Z,956.1542969
2023-05-17T08:31:51.201Z,956.0554199
2023-05-17T08:32:51.672Z,956.1495361
2023-05-17T08:33:52.088Z,956.0942383
2023-05-17T08:34:52.979Z,956.1273193
2023-05-17T08:35:54.049Z,956.1257935
2023-05-17T08:36:54.478Z,956.121582
2023-05-17T08:37:54.968Z,956.0701294
2023-05-17T08:38:56.253Z,956.1098633
2023-05-17T08:39:57.319Z,956.1140747
2023-05-17T08:40:58.519Z,956.0909424
2023-05-17T08:41:59.546Z,956.0899048
2023-05-17T08:42:59.989Z,956.0817261
2023-05-17T08:44:01.261Z,956.0914917
2023-05-17T08:45:02.729Z,956.140686
2023-05-17T08:46:03.727Z,956.1300049
2023-05-17T08:47:04.189Z,956.1620483
2023-05-17T08:48:05.497Z,956.1138306
2023-05-17T08:49:06.791Z,956.133728
2023-05-17T08:50:07.751Z,956.1289063
2023-05-17T08:51:09.040Z,956.1364746
2023-05-17T08:52:09.507Z,956.2058105
2023-05-17T08:53:41.458Z,956.0841675
2023-05-17T08:54:42.731Z,956.2648315
2023-05-17T08:55:43.993Z,956.1765747
2023-05-17T08:56:45.098Z,956.2149048
2023-05-17T08:57:45.405Z,956.2436523
2023-05-17T08:59:47.216Z,956.2832642
2023-05-17T09:00:48.222Z,956.2004395
2023-05-17T09:01:49.509Z,956.3048706
2023-05-17T09:02:50.527Z,956.3228149
2023-05-17T09:03:50.971Z,956.1810913
2023-05-17T09:04:52.283Z,956.277832
2023-05-17T09:05:53.554Z,956.3233032
2023-05-17T09:06:53.986Z,956.3375244
2023-05-17T09:07:55.214Z,956.3456421
2023-05-17T09:08:56.220Z,956.3504639
2023-05-17T09:09:57.349Z,956.3029175
2023-05-17T09:10:58.541Z,956.3049316
2023-05-17T09:11:59.007Z,956.3624878
2023-05-17T09:13:00.194Z,956.3841553
2023-05-17T09:14:01.533Z,956.362793
2023-05-17T09:15:02.117Z,956.3851318
2023-05-17T09:16:02.556Z,956.3872681
2023-05-17T09:17:03.019Z,956.4326782
2023-05-17T09:18:04.277Z,956.4559326
2023-05-17T09:19:04.892Z,956.4384155
2023-05-17T09:20:05.132Z,956.4975586
2023-05-17T09:21:05.612Z,956.4454956
2023-05-17T09:22:06.727Z,956.4650269
2023-05-17T09:23:07.843Z,956.4362793
2023-05-17T09:24:09.313Z,956.4924927
2023-05-17T09:25:09.778Z,956.4346313
2023-05-17T09:26:42.020Z,956.5287476
2023-05-17T09:27:42.474Z,956.4821777
2023-05-17T09:28:43.999Z,956.4014893
2023-05-17T09:29:44.439Z,956.4863892
2023-05-17T09:30:45.741Z,956.5015869
2023-05-17T09:31:47.048Z,956.5524902
2023-05-17T09:33:49.053Z,956.5817261
2023-05-17T09:34:50.003Z,956.5236816
2023-05-17T09:35:51.045Z,956.5695801
2023-05-17T09:36:51.504Z,956.5974121
2023-05-17T09:37:52.752Z,956.6270142
2023-05-17T09:38:54.018Z,956.5620117
2023-05-17T09:39:54.454Z,956.598877
2023-05-17T09:40:54.863Z,956.6054077
2023-05-17T09:41:55.282Z,956.6217041
2023-05-17T09:42:55.859Z,956.6676636
2023-05-17T09:43:57.229Z,956.647644
2023-05-17T09:44:58.253Z,956.6491699
2023-05-17T09:45:59.240Z,956.5910645
2023-05-17T09:46:59.696Z,956.5921631
2023-05-17T09:48:00.886Z,956.4718018
2023-05-17T09:49:02.459Z,956.5737305
2023-05-17T09:50:03.203Z,956.6712646
2023-05-17T09:51:03.622Z,956.5995483
2023-05-17T09:52:04.700Z,956.6592407
2023-05-17T09:53:06.066Z,956.692627
2023-05-17T09:54:07.038Z,956.7647095
2023-05-17T09:55:08.063Z,956.7218628
2023-05-17T09:56:08.504Z,956.7583008
2023-05-17T09:57:10.143Z,956.7457886
2023-05-17T09:58:41.465Z,956.6848145
2023-05-17T09:59:43.735Z,956.7142334
2023-05-17T10:00:43.804Z,956.7039185
2023-05-17T10:01:45.647Z,956.7536011
2023-05-17T10:02:46.097Z,956.757019
2023-05-17T10:03:47.182Z,956.7248535
2023-05-17T10:04:48.548Z,956.7037354
2023-05-17T10:05:49.015Z,956.7642822
2023-05-17T10:06:52.449Z,956.7709351
2023-05-17T10:07:51.236Z,956.7454834
2023-05-17T10:08:52.527Z,956.8082886
2023-05-17T10:09:53.547Z,956.7816162
2023-05-17T10:10:53.956Z,956.7676392
2023-05-17T10:11:55.265Z,956.8001709
2023-05-17T10:12:55.698Z,956.7745361
2023-05-17T10:13:56.101Z,956.753418
2023-05-17T10:14:56.625Z,956.7622681
2023-05-17T10:15:57.023Z,956.7215576
2023-05-17T10:16:58.288Z,956.7528076
2023-05-17T10:17:59.557Z,956.7782593
2023-05-17T10:19:00.630Z,956.7393799
2023-05-17T10:20:01.633Z,956.795105
2023-05-17T10:21:02.004Z,956.8530273
2023-05-17T10:22:18.956Z,956.8026733
2023-05-17T10:23:04.502Z,956.7884521
2023-05-17T10:24:05.526Z,956.7799072
2023-05-17T10:25:05.976Z,956.758728
2023-05-17T10:26:06.537Z,956.7537231
2023-05-17T10:27:06.997Z,956.7788086
2023-05-17T10:28:08.229Z,956.7809448
2023-05-17T10:29:09.514Z,956.8094482
2023-05-17T10:30:40.765Z,956.8087769
2023-05-17T10:31:41.257Z,956.7859497
2023-05-17T10:32:42.295Z,956.8145142
2023-05-17T10:33:43.368Z,956.7489014
2023-05-17T10:34:47.501Z,956.8200073
2023-05-17T10:35:46.047Z,956.7614136
2023-05-17T10:36:47.101Z,956.7715454
2023-05-17T10:37:47.496Z,956.7824707
2023-05-17T10:38:48.764Z,956.7249756
2023-05-17T10:39:49.721Z,956.8201294
2023-05-17T10:40:50.705Z,956.7756348
2023-05-17T10:41:52.816Z,956.8440552
2023-05-17T10:42:53.017Z,956.8098145
2023-05-17T10:43:54.043Z,956.7357788
2023-05-17T10:44:54.486Z,956.8261719
2023-05-17T10:45:55.752Z,956.7137451
2023-05-17T10:46:56.719Z,956.7103271
2023-05-17T10:48:59.064Z,956.7023315
2023-05-17T10:50:00.025Z,956.7363281
2023-05-17T10:51:02.088Z,956.7470093
2023-05-17T10:52:02.504Z,956.682251
2023-05-17T10:53:03.523Z,956.7098389
2023-05-17T10:54:04.509Z,956.7287598
2023-05-17T10:55:05.506Z,956.6781006
2023-05-17T10:56:05.936Z,956.7218628
2023-05-17T10:57:08.949Z,956.7277832
2023-05-17T10:58:07.742Z,956.6875
2023-05-17T10:59:09.510Z,956.6257935
2023-05-17T11:00:40.717Z,956.5675659
2023-05-17T11:01:42.576Z,956.6559448
2023-05-17T11:02:42.725Z,956.6608887
2023-05-17T11:03:43.876Z,956.571106
2023-05-17T11:04:45.290Z,956.5831299
2023-05-17T11:05:45.768Z,956.5671997
2023-05-17T11:06:46.887Z,956.5548706
2023-05-17T11:07:48.049Z,956.6459961
2023-05-17T11:08:49.025Z,956.602356
2023-05-17T11:09:49.510Z,956.6528931
2023-05-17T11:10:50.752Z,956.6307983
2023-05-17T11:11:52.001Z,956.6311035
2023-05-17T11:12:53.012Z,956.6620483
2023-05-17T11:13:54.017Z,956.6174927
2023-05-17T11:14:55.549Z,956.5301514
2023-05-17T11:15:56.490Z,956.5588379
2023-05-17T11:16:58.194Z,956.5686035
2023-05-17T11:17:57.425Z,956.5914307
2023-05-17T11:18:58.748Z,956.6566162
2023-05-17T11:20:00.146Z,956.5960693
2023-05-17T11:21:01.864Z,956.6238403
2023-05-17T11:22:03.058Z,956.6166382
2023-05-17T11:23:04.041Z,956.6074829
2023-05-17T11:24:05.241Z,956.6074829
2023-05-17T11:25:06.312Z,956.6618652
2023-05-17T11:26:15.457Z,956.6732788
2023-05-17T11:27:07.187Z,956.730957
2023-05-17T11:28:07.584Z,956.6907959
2023-05-17T11:29:08.491Z,956.6875
2023-05-17T11:30:39.457Z,956.6679688
2023-05-17T11:31:40.791Z,956.7044678
2023-05-17T11:32:42.087Z,956.6604614
2023-05-17T11:33:43.084Z,956.6403198
2023-05-17T11:34:44.264Z,956.6517334
2023-05-17T11:35:45.522Z,956.6054688
2023-05-17T11:36:46.502Z,956.6325684
2023-05-17T11:37:46.960Z,956.6417236
2023-05-17T11:38:49.941Z,956.6661987
2023-05-17T11:39:47.759Z,956.6378174
2023-05-17T11:40:48.246Z,956.5942383
2023-05-17T11:41:49.251Z,956.6333618
2023-05-17T11:42:50.257Z,956.6392212
2023-05-17T11:43:51.202Z,956.6445313
2023-05-17T11:44:52.198Z,956.6367188
2023-05-17T11:45:53.822Z,956.7058105
2023-05-17T11:46:54.546Z,956.6397095
2023-05-17T11:47:55.044Z,956.6526489
2023-05-17T11:48:56.237Z,956.6940918
2023-05-17T11:49:56.787Z,956.6565552
2023-05-17T11:50:56.954Z,956.6239014
2023-05-17T11:51:57.480Z,956.6392212
2023-05-17T11:52:58.763Z,956.6490479
2023-05-17T11:54:00.005Z,956.7125244
2023-05-17T11:55:00.431Z,956.6972656
2023-05-17T11:56:01.519Z,956.6445313
2023-05-17T11:57:01.974Z,956.6217041
2023-05-17T11:58:03.080Z,956.6276855
2023-05-17T11:59:04.036Z,956.5552979
2023-05-17T12:00:04.453Z,956.6546631
2023-05-17T12:01:05.726Z,956.6361084
2023-05-17T12:02:06.269Z,956.6273193
2023-05-17T12:03:07.397Z,956.5912476
2023-05-17T12:04:08.824Z,956.5942993
2023-05-17T12:05:41.018Z,956.5246582
2023-05-17T12:06:41.495Z,956.5552979
2023-05-17T12:07:42.514Z,956.5697021
2023-05-17T12:08:42.992Z,956.5310059
2023-05-17T12:09:44.275Z,956.5411987
2023-05-17T12:10:45.536Z,956.5632935
2023-05-17T12:11:45.935Z,956.5601807
2023-05-17T12:12:47.038Z,956.5865479
2023-05-17T12:13:48.311Z,956.5670166
2023-05-17T12:14:49.546Z,956.5853271
2023-05-17T12:15:49.993Z,956.5667114
2023-05-17T12:16:51.212Z,956.5396729
2023-05-17T12:17:52.297Z,956.5351563
2023-05-17T12:18:53.729Z,956.5801392
2023-05-17T12:19:55.419Z,956.5407104
2023-05-17T12:20:56.021Z,956.5563965
2023-05-17T12:21:56.435Z,956.5134277
2023-05-17T12:22:57.712Z,956.5131226
2023-05-17T12:23:58.235Z,956.5598145
2023-05-17T12:24:59.276Z,956.5667114
2023-05-17T12:26:00.245Z,956.5756226
2023-05-17T12:27:00.697Z,956.5818481
2023-05-17T12:28:01.110Z,956.5910034
2023-05-17T12:29:02.735Z,956.6004639
2023-05-17T12:30:03.019Z,956.6008301
2023-05-17T12:31:04.273Z,956.5324097
2023-05-17T12:32:05.221Z,956.5682983
2023-05-17T12:33:06.605Z,956.477356
2023-05-17T12:34:07.033Z,956.6062012
2023-05-17T12:35:39.530Z,956.4799194
2023-05-17T12:36:39.934Z,956.4639282
2023-05-17T12:37:41.249Z,956.4799194
2023-05-17T12:38:42.249Z,956.4770508
2023-05-17T12:39:43.443Z,956.5021362
2023-05-17T12:40:44.521Z,956.5125122
2023-05-17T12:41:45.031Z,956.5565796
2023-05-17T12:42:46.239Z,956.5024414
2023-05-17T12:43:47.515Z,956.4854736
2023-05-17T12:44:48.560Z,956.5585938
2023-05-17T12:45:49.004Z,956.4743652
2023-05-17T12:46:50.303Z,956.4848633
2023-05-17T12:47:51.792Z,956.5650635
2023-05-17T12:48:53.151Z,956.4968872
2023-05-17T12:49:54.009Z,956.4632568
2023-05-17T12:50:54.483Z,956.4440918
2023-05-17T12:51:55.803Z,956.479248
2023-05-17T12:52:57.031Z,956.4886475
2023-05-17T12:53:58.023Z,956.5125122
2023-05-17T12:54:58.448Z,956.5007935
2023-05-17T12:55:59.715Z,956.4449463
2023-05-17T12:57:01.023Z,956.4759521
2023-05-17T12:58:02.007Z,956.4260254
2023-05-17T12:59:02.457Z,956.463501
2023-05-17T13:00:02.907Z,956.4765625
2023-05-17T13:01:03.309Z,956.4906006
2023-05-17T13:02:03.828Z,956.463623
2023-05-17T13:03:04.315Z,956.4603271
2023-05-17T13:04:05.742Z,956.4243774
2023-05-17T13:05:06.318Z,956.3979492
2023-05-17T13:06:07.034Z,956.4661865
2023-05-17T13:07:08.022Z,956.4396973
2023-05-17T13:08:39.245Z,956.4929199
2023-05-17T13:09:39.666Z,956.4615479
2023-05-17T13:10:40.250Z,956.463623
2023-05-17T13:11:40.536Z,956.4606323
2023-05-17T13:12:41.021Z,956.446228
2023-05-17T13:13:42.278Z,956.4425659
2023-05-17T13:14:46.238Z,956.3273315
2023-05-17T13:15:44.735Z,956.4330444
2023-05-17T13:16:45.821Z,956.4927368
2023-05-17T13:17:47.131Z,956.4026489
2023-05-17T13:18:48.081Z,956.4310303
2023-05-17T13:19:49.081Z,956.4483032
2023-05-17T13:20:49.466Z,956.4428101
2023-05-17T13:21:50.737Z,956.460022
2023-05-17T13:22:52.098Z,956.4123535
2023-05-17T13:23:53.087Z,956.4215088
2023-05-17T13:24:53.535Z,956.4866333
2023-05-17T13:25:54.768Z,956.4996948
2023-05-17T13:26:56.050Z,956.4087524
2023-05-17T13:27:57.036Z,956.4004517
2023-05-17T13:28:58.085Z,956.3900146
2023-05-17T13:29:59.294Z,956.4376831
2023-05-17T13:30:59.760Z,956.357666
2023-05-17T13:32:00.728Z,956.3706055
2023-05-17T13:33:01.875Z,956.3331299
2023-05-17T13:34:02.289Z,956.34198
2023-05-17T13:35:02.645Z,956.3004761
2023-05-17T13:36:03.793Z,956.3672485
2023-05-17T13:37:04.207Z,956.4472046
2023-05-17T13:38:05.239Z,956.335022
2023-05-17T13:39:06.526Z,956.3760986
2023-05-17T13:40:08.049Z,956.3337402
2023-05-17T13:41:39.304Z,956.3217773
2023-05-17T13:42:40.234Z,956.2510986
2023-05-17T13:43:40.647Z,956.387207
2023-05-17T13:44:41.728Z,956.340332
2023-05-17T13:45:42.878Z,956.326416
2023-05-17T13:46:43.617Z,956.2715454
2023-05-17T13:47:44.827Z,956.1559448
2023-05-17T13:48:45.289Z,956.1975098
2023-05-17T13:49:45.588Z,956.2058105
2023-05-17T13:50:46.969Z,956.1881104
2023-05-17T13:51:48.286Z,956.1743774
2023-05-17T13:52:49.527Z,956.1456299
2023-05-17T13:53:49.950Z,956.1241455
2023-05-17T13:54:51.238Z,956.1535645
2023-05-17T13:55:52.296Z,956.1278687
2023-05-17T13:56:53.544Z,956.1149902
2023-05-17T13:57:54.533Z,956.097168
2023-05-17T13:58:55.553Z,956.0903931
2023-05-17T13:59:56.728Z,956.0893555
2023-05-17T14:00:57.726Z,956.036499
2023-05-17T14:01:58.782Z,956.0394287
2023-05-17T14:03:00.180Z,956.0612793
2023-05-17T14:04:00.647Z,956.0571899
2023-05-17T14:05:01.743Z,956.0997925
2023-05-17T14:06:02.792Z,956.0546265
2023-05-17T14:07:04.081Z,956.0493774
2023-05-17T14:08:04.473Z,956.076416
2023-05-17T14:09:05.817Z,956.0921631
2023-05-17T14:10:07.200Z,956.0516357
2023-05-17T14:11:38.771Z,956.0282593
2023-05-17T14:12:39.920Z,956.0487671
2023-05-17T14:13:40.376Z,956.0592041
2023-05-17T14:14:41.782Z,956.0797119
2023-05-17T14:15:42.749Z,955.9973145
2023-05-17T14:16:43.742Z,955.9765625
2023-05-17T14:17:45.126Z,955.9373169
2023-05-17T14:18:46.159Z,955.9696655
2023-05-17T14:19:46.641Z,956.0007935
2023-05-17T14:20:46.891Z,955.9921265
2023-05-17T14:21:48.262Z,956.0257568
2023-05-17T14:22:49.367Z,955.9191284
2023-05-17T14:23:50.919Z,955.9606934
2023-05-17T14:24:52.231Z,955.9671631
2023-05-17T14:25:52.722Z,955.9456177
2023-05-17T14:26:53.795Z,955.9821777
2023-05-17T14:27:55.037Z,956.0217285
2023-05-17T14:28:55.454Z,956.0585938
2023-05-17T14:29:56.726Z,955.9945068
2023-05-17T14:30:58.028Z,955.9797363
2023-05-17T14:31:59.169Z,955.9973145
2023-05-17T14:33:00.577Z,956.0228271
2023-05-17T14:34:01.604Z,955.9896851
2023-05-17T14:35:02.553Z,955.9854736
2023-05-17T14:36:03.557Z,955.9667969
2023-05-17T14:37:04.530Z,955.9577637
2023-05-17T14:38:05.018Z,955.9932251
2023-05-17T14:39:06.238Z,955.9657593
2023-05-17T14:40:37.435Z,955.8713989
2023-05-17T14:41:38.756Z,955.7920532
2023-05-17T14:42:39.279Z,955.9265747
2023-05-17T14:43:40.378Z,955.8902588
2023-05-17T14:44:41.735Z,955.9083862
2023-05-17T14:45:42.160Z,955.9550171
2023-05-17T14:46:43.334Z,955.8572388
2023-05-17T14:47:44.863Z,955.8796387
2023-05-17T14:48:45.784Z,955.9425659
2023-05-17T14:49:46.780Z,955.9229736
2023-05-17T14:50:47.819Z,955.9325562
2023-05-17T14:51:49.060Z,955.9213867
2023-05-17T14:52:49.476Z,955.9823608
2023-05-17T14:53:50.590Z,955.9846802
2023-05-17T14:54:51.814Z,955.9265747
2023-05-17T14:55:52.801Z,955.918457
2023-05-17T14:56:54.039Z,955.939209
2023-05-17T14:57:55.048Z,955.9000244
2023-05-17T14:58:55.504Z,955.8979492
2023-05-17T14:59:56.762Z,955.9343872
2023-05-17T15:01:04.840Z,955.8914795
2023-05-17T15:01:59.033Z,955.8598633
2023-05-17T15:02:59.572Z,955.8739624
2023-05-17T15:04:00.956Z,955.9129639
2023-05-17T15:05:01.952Z,955.8962402
2023-05-17T15:06:06.888Z,955.8735352
2023-05-17T15:07:04.029Z,955.9065552
2023-05-17T15:08:04.424Z,955.9380493
2023-05-17T15:09:36.616Z,955.9051514
2023-05-17T15:10:37.093Z,955.9327393
2023-05-17T15:11:38.310Z,955.9126587
2023-05-17T15:12:39.254Z,955.9935913
2023-05-17T15:13:40.226Z,955.921936
2023-05-17T15:14:41.339Z,955.9584351
2023-05-17T15:15:42.280Z,955.90271
2023-05-17T15:16:43.446Z,955.918457
2023-05-17T15:17:44.579Z,955.9995117
2023-05-17T15:18:44.976Z,956.0020142
2023-05-17T15:19:45.524Z,956.0105591
2023-05-17T15:20:46.815Z,956.0404663
2023-05-17T15:21:48.057Z,956.0292358
2023-05-17T15:22:49.045Z,956.0593872
2023-05-17T15:23:49.438Z,956.0789185
2023-05-17T15:24:50.776Z,956.0100098
2023-05-17T15:25:51.834Z,956.0218506
2023-05-17T15:26:53.072Z,956.0184326
2023-05-17T15:27:53.463Z,956.0253906
2023-05-17T15:28:54.730Z,956.0003662
2023-05-17T15:29:56.050Z,955.9904175
2023-05-17T15:30:57.067Z,956.0371704
2023-05-17T15:31:57.502Z,956.0033569
2023-05-17T15:32:58.933Z,955.9783325
2023-05-17T15:33:59.794Z,955.994873
2023-05-17T15:35:00.766Z,956.0073242
2023-05-17T15:36:02.079Z,955.9882813
2023-05-17T15:37:03.053Z,956.0245361
2023-05-17T15:38:04.242Z,956.0432129
2023-05-17T15:39:05.238Z,956.0142212
2023-05-17T15:40:36.539Z,955.9910889
2023-05-17T15:41:37.898Z,955.9483643
2023-05-17T15:42:39.276Z,955.9545898
2023-05-17T15:43:40.289Z,955.9709473
2023-05-17T15:44:41.272Z,955.9487305
2023-05-17T15:45:42.298Z,955.9448242
2023-05-17T15:46:43.533Z,955.9823608
2023-05-17T15:47:45.046Z,955.9685669
2023-05-17T15:48:45.571Z,956.0126343
2023-05-17T15:49:46.738Z,956.0192261
2023-05-17T15:50:47.751Z,956.0078125
2023-05-17T15:51:48.152Z,955.9744263
2023-05-17T15:52:49.328Z,956.0348511
2023-05-17T15:53:49.798Z,956.0684204
2023-05-17T15:54:50.248Z,956.0818481
2023-05-17T15:55:50.789Z,956.1121826
2023-05-17T15:56:52.033Z,956.0485229
2023-05-17T15:57:52.588Z,956.072998
2023-05-17T15:58:53.782Z,956.0949097
2023-05-17T15:59:54.765Z,956.0914307
2023-05-17T16:00:56.062Z,956.0861816
2023-05-17T16:01:57.028Z,956.0482788
2023-05-17T16:02:58.368Z,956.0793457
2023-05-17T16:03:59.387Z,956.0702515
2023-05-17T16:05:03.540Z,956.0134277
2023-05-17T16:06:01.326Z,956.0458374
2023-05-17T16:07:02.241Z,956.0007935
2023-05-17T16:08:02.794Z,956.0534668
2023-05-17T16:09:03.789Z,956.0117188
2023-05-17T16:10:05.086Z,956.0315552
2023-05-17T16:11:36.782Z,956.0218506
2023-05-17T16:12:37.205Z,956.0085449
2023-05-17T16:13:37.730Z,956.0859375
2023-05-17T16:14:38.821Z,956.0930176
2023-05-17T16:15:39.805Z,956.0261841
2023-05-17T16:16:40.788Z,956.0480957
2023-05-17T16:17:42.119Z,956.0487671
2023-05-17T16:18:42.600Z,956.0471191
2023-05-17T16:19:43.840Z,956.0256348
2023-05-17T16:20:44.822Z,956.085022
2023-05-17T16:21:45.753Z,956.0562744
2023-05-17T16:22:46.772Z,956.0269775
2023-05-17T16:23:47.167Z,956.0863037
2023-05-17T16:24:48.295Z,956.0866699
2023-05-17T16:25:49.288Z,956.0775146
2023-05-17T16:26:50.553Z,956.0563354
2023-05-17T16:27:50.968Z,956.0948486
2023-05-17T16:28:53.280Z,956.0367432
2023-05-17T16:29:54.320Z,956.0552979
2023-05-17T16:30:55.555Z,956.029541
2023-05-17T16:31:56.571Z,956.0441895
2023-05-17T16:32:57.565Z,956.0030518
2023-05-17T16:33:58.108Z,956.0140381
2023-05-17T16:34:59.267Z,955.984375
2023-05-17T16:36:00.571Z,955.9676514
2023-05-17T16:37:01.042Z,956.0014648
2023-05-17T16:38:01.471Z,956.0494385
2023-05-17T16:39:02.766Z,955.9795532
2023-05-17T16:40:04.056Z,955.9911499
2023-05-17T16:41:04.553Z,955.946167
2023-05-17T16:42:35.684Z,955.984375
2023-05-17T16:43:36.324Z,955.9957886
2023-05-17T16:44:37.317Z,955.9639282
2023-05-17T16:45:38.267Z,955.9938965
2023-05-17T16:46:38.799Z,955.9733887
2023-05-17T16:47:39.265Z,955.9642334
2023-05-17T16:48:39.584Z,956.0256348
2023-05-17T16:49:40.779Z,956.0289307
2023-05-17T16:50:41.179Z,955.9538574
2023-05-17T16:51:42.563Z,955.9821777
2023-05-17T16:52:43.552Z,955.986084
2023-05-17T16:53:44.002Z,955.9718628
2023-05-17T16:54:45.036Z,955.975769
2023-05-17T16:55:46.085Z,955.9927979
2023-05-17T16:56:46.479Z,955.9888916
2023-05-17T16:57:47.875Z,955.9416504
2023-05-17T16:58:49.301Z,955.9272461
2023-05-17T16:59:50.269Z,955.9981079
2023-05-17T17:00:50.694Z,955.9664917
2023-05-17T17:01:51.808Z,955.9547119
2023-05-17T17:02:52.890Z,955.9073486
2023-05-17T17:03:53.796Z,955.9833374
2023-05-17T17:04:54.190Z,955.8968506
2023-05-17T17:05:54.598Z,955.9448242
2023-05-17T17:06:55.008Z,955.9406128
2023-05-17T17:07:56.373Z,955.9126587
2023-05-17T17:08:57.832Z,955.9957886
2023-05-17T17:09:59.051Z,955.944519
2023-05-17T17:10:59.524Z,955.9142456
2023-05-17T17:12:04.708Z,955.9432983
2023-05-17T17:13:01.793Z,955.8884888
2023-05-17T17:14:03.053Z,955.9293823
2023-05-17T17:15:04.533Z,955.9136963
2023-05-17T17:16:03.899Z,955.9179077
2023-05-17T17:17:36.108Z,955.8886108
2023-05-17T17:18:36.537Z,955.854248
2023-05-17T17:19:37.776Z,955.8516235
2023-05-17T17:20:38.815Z,955.8738403
2023-05-17T17:21:40.058Z,955.8568726
2023-05-17T17:22:40.536Z,955.897644
2023-05-17T17:23:41.865Z,955.8447876
2023-05-17T17:24:42.788Z,955.887207
2023-05-17T17:25:44.054Z,955.8668823
2023-05-17T17:26:45.060Z,955.8284302
2023-05-17T17:27:45.451Z,955.8904419
2023-05-17T17:28:46.785Z,955.8577881
2023-05-17T17:29:47.796Z,955.8898315
2023-05-17T17:30:49.067Z,955.8881226
2023-05-17T17:31:49.489Z,955.9083862
2023-05-17T17:32:50.845Z,955.8815918
2023-05-17T17:33:51.762Z,955.8927612
2023-05-17T17:34:53.036Z,955.9123535
2023-05-17T17:35:53.456Z,955.9084473
2023-05-17T17:36:54.736Z,955.9351807
2023-05-17T17:37:55.756Z,955.8862305
2023-05-17T17:38:57.089Z,955.9000244
2023-05-17T17:39:58.183Z,955.882019
2023-05-17T17:40:58.617Z,955.9071045
2023-05-17T17:41:59.881Z,955.9658813
2023-05-17T17:43:01.292Z,955.9720459
2023-05-17T17:44:02.601Z,955.9329834
2023-05-17T17:45:03.570Z,955.9398193
2023-05-17T17:46:04.436Z,955.9898682
2023-05-17T17:47:36.173Z,955.9575195
2023-05-17T17:48:37.311Z,955.907959
2023-05-17T17:49:38.449Z,955.9213867
2023-05-17T17:50:38.942Z,955.9660645
2023-05-17T17:51:39.523Z,955.958252
2023-05-17T17:52:40.576Z,955.9562988
2023-05-17T17:53:41.763Z,955.9606323
2023-05-17T17:54:44.063Z,955.9514771
2023-05-17T17:55:44.550Z,955.9657593
2023-05-17T17:56:45.121Z,955.9671021
2023-05-17T17:57:46.282Z,955.9723511
2023-05-17T17:58:47.254Z,955.9084473
2023-05-17T17:59:47.740Z,955.9678345
2023-05-17T18:00:49.073Z,955.9592896
2023-05-17T18:01:49.683Z,955.9520874
2023-05-17T18:02:49.989Z,955.9631958
2023-05-17T18:03:51.283Z,956.0046387
2023-05-17T18:04:52.650Z,955.9890137
2023-05-17T18:05:53.151Z,956.0198975
2023-05-17T18:06:54.261Z,956.0431519
2023-05-17T18:07:55.260Z,955.9971313
2023-05-17T18:08:56.560Z,956.0042114
2023-05-17T18:09:57.140Z,955.9543457
2023-05-17T18:10:58.307Z,955.9898682
2023-05-17T18:11:59.285Z,956.0394287
2023-05-17T18:12:59.794Z,956.0286865
2023-05-17T18:14:00.820Z,956.0006104
2023-05-17T18:15:01.795Z,956.0339355
2023-05-17T18:16:02.805Z,956.0449219
2023-05-17T18:17:03.298Z,956.0837402
2023-05-17T18:18:35.092Z,956.0875854
2023-05-17T18:19:35.528Z,956.0904541
2023-05-17T18:20:36.573Z,956.0934448
2023-05-17T18:21:37.019Z,956.0457764
2023-05-17T18:22:38.303Z,956.0584106
2023-05-17T18:23:38.750Z,956.0180664
2023-05-17T18:24:39.807Z,956.0300293
2023-05-17T18:25:41.112Z,956.0167236
2023-05-17T18:26:42.106Z,955.9934082
2023-05-17T18:27:43.564Z,956.0144043
2023-05-17T18:28:44.007Z,955.9888916
2023-05-17T18:29:45.303Z,956.0742188
2023-05-17T18:30:45.826Z,955.9995117
2023-05-17T18:31:46.283Z,955.9578247
2023-05-17T18:32:46.826Z,956.0170898
2023-05-17T18:33:48.080Z,956.0320435
2023-05-17T18:34:49.086Z,956.0039673
2023-05-17T18:35:49.535Z,956.0284424
2023-05-17T18:36:50.786Z,956.0084229
2023-05-17T18:37:52.071Z,956
2023-05-17T18:38:53.075Z,956.0501709
2023-05-17T18:39:54.073Z,956.0083618
2023-05-17T18:40:54.544Z,955.9689331
2023-05-17T18:41:55.939Z,956.0167236
2023-05-17T18:42:57.350Z,955.9886475
2023-05-17T18:43:57.880Z,955.9890137
2023-05-17T18:44:59.382Z,955.9543457
2023-05-17T18:46:00.831Z,955.9804077
2023-05-17T18:47:01.338Z,955.9810181
2023-05-17T18:48:01.769Z,956.0353394
2023-05-17T18:49:02.175Z,955.9893799
2023-05-17T18:50:34.023Z,955.9586792
2023-05-17T18:51:35.899Z,955.946228
2023-05-17T18:52:37.361Z,956.0371094
2023-05-17T18:53:38.792Z,956.0133057
2023-05-17T18:54:40.061Z,956.0177612
2023-05-17T18:55:40.577Z,955.9896851
2023-05-17T18:56:41.930Z,956.0144043
2023-05-17T18:57:43.633Z,956.0133057
2023-05-17T18:58:46.193Z,956.0167847
2023-05-17T18:59:46.124Z,956.0392456
2023-05-17T19:00:47.150Z,956.0632324
2023-05-17T19:01:47.499Z,956.0604858
2023-05-17T19:02:48.951Z,956.045105
2023-05-17T19:03:49.931Z,956.0164185
2023-05-17T19:04:51.325Z,956.0967407
2023-05-17T19:05:52.620Z,956.0474854
2023-05-17T19:06:53.103Z,956.0845337
2023-05-17T19:07:54.321Z,956.0671997
2023-05-17T19:08:55.601Z,956.038147
2023-05-17T19:09:56.767Z,956.0907593
2023-05-17T19:10:57.229Z,956.0653076
2023-05-17T19:11:57.699Z,956.0834351
2023-05-17T19:12:59.128Z,956.0861206